Hadar, Nebraska
Current Conditions -  °F | °C
As of 9:56 PM on Tuesday 21 Oct 2014 (Local Time) from KOFK Reporting Station
Clear Clear  
Wind Chill: 16°   Ceiling: Unl
Heat Index: 16°   Visibility: 10mi
Dew Point:   Wind: 16mph
Humidity: 44%   Direction: 130°SE
Pressure: 30.01"   Gusts: NA
Location:  42.11°N, 97.45°W
Report Text: KOFK 220256Z AUTO 13014KT 10SM CLR 16/04 A3001 RMK AO2 SLP157 T01610039 52009
Loading
Personal Weather Stations






























Interactive Weather Map
Tropical Storm Tracking
New forecast layout! Learn more

10-Day Weather Forecast

Advertisements
Track Severe Weather on mobile